Time;durP1;ratioP1;P1;durP2;ratioP2;P2;SDS_P1;SDS_P2;PMS_P1;PMS_P2;Temp;Humidity;BMP_temperature;BMP_pressure;BME280_temperature;BME280_humidity;BME280_pressure;Samples;Min_cycle;Max_cycle;Signal;HPM_P1;HPM_P2
2022/09/21 00:00:29;;;;;;;8.60;0.80;;;;;;;11.73;45.91;100342.94;5029763;28;20057;-64
2022/09/21 00:03:09;;;;;;;74.72;3.72;;;;;;;11.65;45.06;100330.88;4981325;28;20289;-66
2022/09/21 00:05:54;;;;;;;5.18;0.80;;;;;;;11.56;44.66;100338.91;5015585;28;20054;-63
2022/09/21 00:08:39;;;;;;;25.92;1.83;;;;;;;11.15;45.17;100353.59;5031695;28;20041;-67
2022/09/21 00:11:23;;;;;;;2.28;0.80;;;;;;;11.09;46.24;100343.25;5029617;28;20053;-63
2022/09/21 00:14:16;;;;;;;9.20;1.00;;;;;;;11.56;45.00;100344.16;5029883;28;20041;-64
2022/09/21 00:16:58;;;;;;;13.13;1.90;;;;;;;11.86;42.58;100336.59;5030322;28;20274;-64
2022/09/21 00:19:34;;;;;;;11.65;1.00;;;;;;;12.33;43.36;100358.34;4987599;28;20045;-64
2022/09/21 00:22:30;;;;;;;11.88;1.20;;;;;;;12.58;43.09;100369.13;5040210;28;20053;-66
2022/09/21 00:25:15;;;;;;;30.65;2.20;;;;;;;12.63;42.48;100379.47;5068655;28;20124;-64
2022/09/21 00:27:51;;;;;;;14.38;0.90;;;;;;;12.54;42.55;100374.47;5080004;28;20292;-63
2022/09/21 00:33:23;;;;;;;8.70;1.25;;;;;;;12.84;42.02;100381.59;5076981;28;20040;-65
2022/09/21 00:36:12;;;;;;;5.00;0.80;;;;;;;12.98;40.75;100377.78;5052790;28;20070;-64
2022/09/21 00:39:01;;;;;;;27.52;2.08;;;;;;;13.03;40.81;100370.66;5065633;28;20044;-64
2022/09/21 00:41:52;;;;;;;9.50;1.13;;;;;;;13.18;40.90;100391.28;5077662;28;20055;-63
2022/09/21 00:44:35;;;;;;;7.28;0.98;;;;;;;13.17;39.97;100368.56;5043492;28;20055;-65
2022/09/21 00:47:30;;;;;;;2.78;0.90;;;;;;;13.37;40.58;100371.56;5079679;28;20086;-63
2022/09/21 00:50:20;;;;;;;46.53;3.58;;;;;;;13.73;42.40;100373.28;5077447;28;20060;-64
2022/09/21 00:55:59;;;;;;;9.65;1.20;;;;;;;13.57;39.45;100367.56;5080746;28;20926;-63
2022/09/21 00:58:43;;;;;;;11.77;1.98;;;;;;;13.68;40.58;100376.00;5046427;28;20314;-65
2022/09/21 01:01:35;;;;;;;13.65;1.75;;;;;;;13.90;39.80;100380.66;5076162;28;20336;-65
2022/09/21 01:04:18;;;;;;;;;;;;;;;13.98;40.53;100392.69;5079324;28;20373;-66
2022/09/21 01:07:14;;;;;;;6.30;0.82;;;;;;;13.93;37.09;100386.69;5078284;28;19916;-66
2022/09/21 01:10:01;;;;;;;16.05;1.75;;;;;;;13.63;39.41;100391.03;5080924;28;20086;-67
2022/09/21 01:13:09;;;;;;;11.30;1.40;;;;;;;13.77;40.79;100381.00;5061761;28;20057;-64
2022/09/21 01:16:13;;;;;;;17.25;2.42;;;;;;;13.97;40.99;100382.19;5080704;28;20066;-66
2022/09/21 01:19:15;;;;;;;50.30;3.70;;;;;;;14.03;40.88;100382.03;5051472;28;20087;-67
2022/09/21 01:22:17;;;;;;;15.63;1.25;;;;;;;13.96;39.84;100376.09;5071008;28;20076;-64
2022/09/21 01:25:10;;;;;;;22.98;1.92;;;;;;;14.01;39.07;100383.84;5037118;28;20064;-66
2022/09/21 01:28:16;;;;;;;19.95;2.70;;;;;;;13.79;39.18;100346.81;5069141;28;20072;-66
2022/09/21 01:31:10;;;;;;;17.35;1.83;;;;;;;13.79;37.76;100389.69;5039465;28;20070;-65
2022/09/21 01:33:57;;;;;;;10.40;1.20;;;;;;;13.72;39.51;100382.88;5042246;28;20242;-66
2022/09/21 01:36:35;;;;;;;13.27;1.10;;;;;;;13.95;40.11;100389.25;5068861;28;20053;-64
2022/09/21 01:39:25;;;;;;;5.28;1.05;;;;;;;13.87;39.12;100359.72;5069805;28;20037;-66
2022/09/21 01:48:18;;;;;;;23.00;1.80;;;;;;;14.18;40.49;100376.34;5057684;28;20466;-66
2022/09/21 01:50:55;;;;;;;9.27;1.20;;;;;;;14.32;40.10;100383.78;5058035;28;20313;-66
2022/09/21 01:56:41;;;;;;;5.38;0.82;;;;;;;14.62;40.60;100371.50;5057567;28;20283;-64
2022/09/21 01:59:26;;;;;;;13.60;1.10;;;;;;;14.45;39.03;100379.03;5057647;28;20072;-66
2022/09/21 02:02:15;;;;;;;3.67;0.50;;;;;;;14.20;37.34;100364.03;5056565;28;20055;-65
2022/09/21 02:05:15;;;;;;;4.95;1.00;;;;;;;14.14;39.91;100369.44;5056386;28;20045;-66
2022/09/21 02:07:56;;;;;;;26.15;1.60;;;;;;;14.32;39.41;100367.16;5008787;28;20060;-64
2022/09/21 02:10:58;;;;;;;27.52;2.10;;;;;;;13.95;37.49;100368.25;5033975;28;20083;-63
2022/09/21 02:13:36;;;;;;;12.85;1.30;;;;;;;13.87;37.86;100370.25;5067214;28;20241;-64
2022/09/21 02:16:32;;;;;;;7.55;0.80;;;;;;;13.72;37.92;100367.13;5073159;28;20052;-64
2022/09/21 02:19:15;;;;;;;;;;;;;;;13.82;36.76;100359.84;5081066;28;20118;-64
2022/09/21 02:22:16;;;;;;;6.35;0.77;;;;;;;14.08;40.00;100359.13;5080614;28;19959;-65
2022/09/21 02:25:17;;;;;;;10.85;1.17;;;;;;;13.91;39.24;100306.22;5079626;28;20336;-65
2022/09/21 02:28:01;;;;;;;10.90;1.02;;;;;;;14.20;38.49;100342.13;5080282;28;20060;-64
2022/09/21 02:30:55;;;;;;;7.88;0.95;;;;;;;14.37;39.73;100354.75;5036643;28;20688;-64
2022/09/21 02:34:03;;;;;;;5.70;0.85;;;;;;;14.40;37.83;100359.91;5056617;28;20053;-64
2022/09/21 02:36:58;;;;;;;51.40;2.45;;;;;;;14.26;38.63;100354.22;5080711;28;20111;-65
2022/09/21 02:43:12;;;;;;;25.70;2.65;;;;;;;14.44;38.59;100346.63;5083581;28;20242;-67
2022/09/21 02:46:13;;;;;;;5.05;0.90;;;;;;;14.53;38.03;100345.53;5081866;28;20067;-66
2022/09/21 02:49:25;;;;;;;9.38;1.30;;;;;;;14.29;38.47;100288.44;5043799;28;20041;-65
2022/09/21 02:52:08;;;;;;;7.15;0.90;;;;;;;14.61;38.20;100354.03;5083976;28;20068;-63
2022/09/21 02:54:48;;;;;;;36.38;3.00;;;;;;;14.36;38.65;100326.75;5083371;28;20067;-65
2022/09/21 02:57:43;;;;;;;4.13;0.90;;;;;;;14.52;39.56;100332.38;5083681;28;20048;-65
2022/09/21 03:00:48;;;;;;;10.15;1.23;;;;;;;14.62;37.66;100341.72;5083249;28;20061;-65
2022/09/21 03:06:25;;;;;;;13.32;1.75;;;;;;;14.87;37.92;100337.38;5082521;28;20074;-64
2022/09/21 03:12:01;;;;;;;8.55;0.98;;;;;;;15.15;38.98;100338.25;5081712;28;20052;-65
2022/09/21 03:14:51;;;;;;;8.73;1.33;;;;;;;15.13;38.98;100334.84;5083532;28;20040;-63
2022/09/21 03:17:31;;;;;;;6.97;1.42;;;;;;;15.25;38.13;100344.91;5082197;28;20049;-64
2022/09/21 03:20:08;;;;;;;9.80;1.30;;;;;;;15.29;38.59;100341.28;5083706;28;20047;-64
2022/09/21 03:23:00;;;;;;;7.33;0.93;;;;;;;15.33;38.68;100335.00;5081504;28;20304;-64
2022/09/21 03:25:34;;;;;;;185.97;14.53;;;;;;;15.44;39.14;100340.72;5083763;28;20378;-64
2022/09/21 03:28:37;;;;;;;16.23;1.70;;;;;;;15.41;37.99;100334.72;5083464;28;20311;-64
2022/09/21 03:31:24;;;;;;;34.43;2.93;;;;;;;15.41;38.34;100338.22;5084084;28;20453;-64
2022/09/21 03:34:21;;;;;;;11.00;0.97;;;;;;;15.52;38.61;100319.38;5085091;28;20557;-64
2022/09/21 03:36:59;;;;;;;10.63;1.20;;;;;;;15.46;39.37;100307.31;5080604;28;20290;-64
2022/09/21 03:39:40;;;;;;;8.23;1.43;;;;;;;15.62;38.58;100333.09;5083384;28;20322;-64
2022/09/21 03:42:17;;;;;;;27.37;1.90;;;;;;;15.17;36.82;100278.53;5034375;28;20440;-63
2022/09/21 03:45:01;;;;;;;108.13;7.20;;;;;;;15.35;38.30;100327.91;5050887;28;20343;-65
2022/09/21 03:47:57;;;;;;;17.83;1.20;;;;;;;15.47;39.84;100330.09;5029187;28;20290;-65
2022/09/21 03:50:56;;;;;;;11.17;2.07;;;;;;;15.63;39.09;100322.50;5082763;28;20278;-66
2022/09/21 03:53:32;;;;;;;7.82;1.33;;;;;;;15.40;37.54;100336.50;5082543;28;20283;-64
2022/09/21 03:56:10;;;;;;;26.88;1.85;;;;;;;15.46;38.97;100333.63;5081501;28;20124;-63
2022/09/21 03:58:55;;;;;;;5.47;0.90;;;;;;;15.56;38.64;100325.44;5083551;28;20346;-64
2022/09/21 04:01:32;;;;;;;5.10;1.10;;;;;;;15.58;38.22;100328.88;5082074;28;20314;-63
2022/09/21 04:04:24;;;;;;;13.13;0.87;;;;;;;15.67;39.23;100331.16;5083498;28;20288;-64
2022/09/21 04:07:19;;;;;;;48.33;4.67;;;;;;;15.79;39.12;100324.63;5037741;28;20291;-64
2022/09/21 04:13:55;;;;;;;6.67;1.10;;;;;;;15.57;38.63;100335.03;5023673;28;20636;-64
2022/09/21 04:19:40;;;;;;;3.23;0.90;;;;;;;15.60;39.35;100334.91;5082398;28;20290;-64
2022/09/21 04:22:26;;;;;;;22.73;1.50;;;;;;;15.63;38.13;100332.19;5040665;28;20752;-64
2022/09/21 04:25:17;;;;;;;21.47;1.70;;;;;;;15.66;37.89;100335.56;5081089;28;20286;-64
2022/09/21 04:28:08;;;;;;;12.83;1.60;;;;;;;15.65;37.09;100322.44;5082045;28;20314;-64
2022/09/21 04:31:11;;;;;;;15.30;1.40;;;;;;;15.63;37.19;100335.69;5081841;28;20307;-65
2022/09/21 04:34:00;;;;;;;8.15;0.80;;;;;;;15.64;38.36;100328.63;5079266;28;20299;-64
2022/09/21 04:37:01;;;;;;;5.00;0.60;;;;;;;15.57;38.32;100337.66;5081874;28;20071;-65
2022/09/21 04:39:46;;;;;;;4.60;0.87;;;;;;;15.48;37.13;100325.69;5081552;28;20052;-64
2022/09/21 04:42:36;;;;;;;5.70;0.80;;;;;;;15.51;38.33;100323.81;5080739;28;20306;-65
2022/09/21 04:45:26;;;;;;;11.13;1.10;;;;;;;15.54;37.88;100342.13;5081903;28;20541;-65
2022/09/21 04:48:01;;;;;;;4.67;1.10;;;;;;;15.64;37.85;100349.69;5081516;28;20286;-64
2022/09/21 04:50:58;;;;;;;21.30;1.88;;;;;;;15.66;35.68;100350.50;5010371;28;20345;-65
2022/09/21 04:56:59;;;;;;;29.63;2.17;;;;;;;15.32;37.34;100368.38;5040233;28;20730;-65
2022/09/21 05:00:13;;;;;;;3.47;0.70;;;;;;;15.32;35.84;100372.75;5080142;28;20286;-63
2022/09/21 05:05:53;;;;;;;17.57;1.70;;;;;;;15.29;37.39;100351.81;5081446;28;20283;-64
2022/09/21 05:11:39;;;;;;;13.33;1.10;;;;;;;15.31;35.11;100376.31;5080991;28;20286;-64
2022/09/21 05:14:43;;;;;;;7.53;1.03;;;;;;;15.19;37.15;100387.25;5080952;28;20362;-64
2022/09/21 05:17:25;;;;;;;9.90;1.17;;;;;;;15.38;38.26;100388.34;5036611;28;20299;-65
2022/09/21 05:20:02;;;;;;;17.03;2.07;;;;;;;15.42;36.24;100387.31;5080171;28;20483;-65
2022/09/21 05:22:54;;;;;;;17.93;1.87;;;;;;;15.24;35.72;100395.84;5079823;28;20299;-65
2022/09/21 05:25:43;;;;;;;26.87;2.27;;;;;;;15.21;37.58;100390.69;5078367;28;20471;-65
2022/09/21 05:31:37;;;;;;;5.10;0.90;;;;;;;15.44;37.76;100403.94;5078795;28;20342;-66
2022/09/21 05:34:32;;;;;;;4.77;0.90;;;;;;;15.42;38.18;100400.47;5077774;28;20334;-64
2022/09/21 05:37:48;;;;;;;9.60;1.10;;;;;;;15.47;37.83;100406.44;5076983;28;20292;-66
2022/09/21 05:40:49;;;;;;;18.50;2.47;;;;;;;15.45;36.93;100403.03;5024849;28;20330;-64
2022/09/21 05:43:35;;;;;;;7.07;1.17;;;;;;;15.37;38.40;100409.47;5029530;28;20307;-65
2022/09/21 05:46:40;;;;;;;13.40;1.40;;;;;;;15.27;37.25;100411.53;5078886;28;20063;-64
2022/09/21 05:49:41;;;;;;;17.23;1.53;;;;;;;15.24;37.07;100422.19;5079586;28;20290;-66
2022/09/21 05:52:43;;;;;;;35.50;3.43;;;;;;;15.16;37.36;100424.22;5077463;28;20302;-65
2022/09/21 05:55:47;;;;;;;14.03;1.40;;;;;;;15.12;37.87;100427.84;5076266;28;20363;-64
2022/09/21 05:58:58;;;;;;;32.60;2.67;;;;;;;15.16;38.54;100434.72;5077142;28;20604;-66
2022/09/21 06:01:47;;;;;;;11.33;1.53;;;;;;;15.08;37.43;100435.84;5078947;28;20287;-65
2022/09/21 06:04:27;;;;;;;39.50;3.20;;;;;;;14.99;38.06;100430.88;5077985;28;20676;-65
2022/09/21 06:07:08;;;;;;;12.30;1.10;;;;;;;15.00;38.60;100429.97;5076308;28;20398;-64
2022/09/21 06:09:47;;;;;;;4.10;0.90;;;;;;;15.05;38.31;100443.84;5077951;28;20325;-65
2022/09/21 06:12:40;;;;;;;26.23;2.47;;;;;;;14.93;37.78;100438.13;5053676;28;20291;-66
2022/09/21 06:15:32;;;;;;;80.57;5.53;;;;;;;14.97;39.40;100444.97;5082764;28;20295;-63
2022/09/21 06:21:16;;;;;;;29.77;3.10;;;;;;;14.83;39.11;100419.13;5021816;28;20331;-65
2022/09/21 06:24:09;;;;;;;7.00;1.20;;;;;;;14.86;38.23;100458.47;5022542;28;20354;-65
2022/09/21 06:58:27;;;;;;;10.63;1.17;;;;;;;14.54;40.90;100494.47;5060012;28;20350;-65
2022/09/21 07:01:18;;;;;;;12.73;1.70;;;;;;;14.40;40.69;100497.50;4990695;28;20286;-65
2022/09/21 07:04:09;;;;;;;47.20;3.10;;;;;;;14.41;40.33;100514.97;4988828;28;20321;-65
2022/09/21 07:06:56;;;;;;;76.40;5.93;;;;;;;14.37;41.14;100517.72;4965508;28;21139;-65
2022/09/21 07:09:54;;;;;;;16.67;2.03;;;;;;;14.30;40.40;100522.28;4989580;28;20282;-65
2022/09/21 07:15:38;;;;;;;36.17;2.38;;;;;;;14.09;40.83;100526.38;4988523;28;20286;-66
2022/09/21 07:18:22;;;;;;;12.05;1.88;;;;;;;13.84;41.58;100491.16;4969460;28;20114;-65
2022/09/21 07:20:56;;;;;;;24.43;2.67;;;;;;;14.08;41.89;100536.91;4991042;28;20058;-65
2022/09/21 07:23:45;;;;;;;16.67;1.55;;;;;;;14.01;42.19;100541.50;5009848;28;20328;-65
2022/09/21 07:26:25;;;;;;;47.05;4.03;;;;;;;13.95;42.48;100542.50;5009842;28;20345;-65
2022/09/21 07:29:08;;;;;;;27.75;2.20;;;;;;;13.93;42.66;100548.72;5010630;28;20064;-66
2022/09/21 07:32:13;;;;;;;11.63;1.50;;;;;;;13.78;42.43;100550.81;5010367;28;20303;-65
2022/09/21 07:35:09;;;;;;;9.48;1.40;;;;;;;13.60;41.90;100551.25;5005932;28;20199;-64
2022/09/21 07:37:53;;;;;;;21.00;1.98;;;;;;;13.34;42.33;100534.38;5023108;28;20080;-65
2022/09/21 07:40:26;;;;;;;11.50;1.42;;;;;;;13.33;43.01;100558.91;5040869;28;20056;-63
2022/09/21 07:43:21;;;;;;;9.27;1.25;;;;;;;13.22;43.28;100563.47;5085362;28;20044;-65
2022/09/21 07:46:10;;;;;;;5.00;1.00;;;;;;;13.13;44.10;100561.94;5087150;28;20048;-64
2022/09/21 07:49:04;;;;;;;5.78;1.35;;;;;;;13.17;45.14;100573.22;5084223;28;20237;-64
2022/09/21 07:51:49;;;;;;;10.32;2.03;;;;;;;13.09;46.07;100575.16;5030940;28;20104;-64
2022/09/21 07:54:33;;;;;;;17.02;3.17;;;;;;;12.90;45.94;100559.81;5052040;28;20055;-64
2022/09/21 08:00:02;;;;;;;6.65;1.98;;;;;;;12.58;46.56;100573.59;5047276;28;20056;-64
2022/09/21 08:05:37;;;;;;;26.17;2.67;;;;;;;12.43;46.24;100600.94;5082441;28;20041;-64
2022/09/21 08:08:31;;;;;;;75.43;6.20;;;;;;;12.29;47.05;100595.94;5083208;28;20084;-64
2022/09/21 08:11:15;;;;;;;24.48;3.10;;;;;;;12.25;47.69;100611.75;5086468;28;20040;-64
2022/09/21 08:19:59;;;;;;;24.60;4.22;;;;;;;11.84;49.52;100623.75;5086778;28;20083;-64
2022/09/21 08:22:50;;;;;;;23.45;3.30;;;;;;;11.64;49.37;100622.31;5027125;28;20057;-64
2022/09/21 08:25:26;;;;;;;50.15;4.32;;;;;;;11.47;49.14;100621.69;5059014;28;20124;-63
2022/09/21 08:28:00;;;;;;;100.32;7.53;;;;;;;10.98;48.82;100575.28;5062038;28;20061;-63
2022/09/21 08:30:40;;;;;;;17.88;2.40;;;;;;;11.15;49.19;100630.84;5061755;28;20076;-63
2022/09/21 08:33:24;;;;;;;12.77;2.85;;;;;;;11.03;49.34;100644.06;5061434;28;20048;-63
2022/09/21 08:36:01;;;;;;;10.68;3.15;;;;;;;10.90;50.79;100645.09;5061511;28;20044;-63
2022/09/21 08:42:19;;;;;;;125.18;8.52;;;;;;;10.91;52.49;100662.53;5061544;28;20067;-63
2022/09/21 08:45:03;;;;;;;151.45;11.82;;;;;;;10.72;53.36;100649.66;5024928;28;20074;-63
2022/09/21 08:48:00;;;;;;;77.18;6.18;;;;;;;10.48;54.32;100663.84;5059879;28;20053;-63
2022/09/21 08:50:43;;;;;;;19.75;2.42;;;;;;;10.29;53.83;100665.75;5058349;28;20057;-63
2022/09/21 08:53:51;;;;;;;30.13;4.53;;;;;;;10.10;53.02;100682.41;5060757;28;20045;-62
2022/09/21 08:56:35;;;;;;;10.80;2.65;;;;;;;9.89;53.53;100692.13;5061494;28;20056;-62
2022/09/21 08:59:38;;;;;;;14.90;2.35;;;;;;;9.70;53.29;100687.91;5061177;28;20076;-62
2022/09/21 09:03:06;;;;;;;8.48;2.20;;;;;;;9.37;53.98;100668.97;5061581;28;20087;-63
2022/09/21 09:06:03;;;;;;;106.80;8.48;;;;;;;9.45;54.51;100698.47;5051991;28;20336;-62
2022/09/21 09:09:37;;;;;;;58.88;5.93;;;;;;;9.40;55.12;100710.66;5060859;28;20921;-62
2022/09/21 09:12:34;;;;;;;190.20;25.40;;;;;;;9.19;57.54;100689.91;5042911;28;20064;-62
2022/09/21 10:41:54;;;;;;;22.02;7.93;;;;;;;5.84;72.07;100740.69;5022364;28;20045;-61
2022/09/21 10:44:46;;;;;;;22.00;6.88;;;;;;;6.11;71.43;100792.03;5074210;28;20044;-61
2022/09/21 10:47:32;;;;;;;19.83;6.22;;;;;;;6.37;71.70;100838.16;5038585;28;20407;-61
2022/09/21 10:50:25;;;;;;;;;;;;;;;6.35;72.10;100848.53;5057778;28;20202;-61
2022/09/21 10:56:41;;;;;;;14.27;6.10;;;;;;;6.09;72.25;100844.75;5072720;28;20083;-61
2022/09/21 11:05:44;;;;;;;10.00;3.40;;;;;;;5.92;72.11;100866.19;5030967;28;20052;-60
2022/09/21 11:08:24;;;;;;;15.77;3.70;;;;;;;5.86;72.41;100873.88;5036787;28;20052;-60
2022/09/21 11:11:38;;;;;;;13.32;4.45;;;;;;;5.88;72.85;100866.97;5073270;28;20043;-59
2022/09/21 11:14:30;;;;;;;32.88;4.80;;;;;;;5.62;73.57;100833.81;5039260;28;20281;-60
2022/09/21 11:17:33;;;;;;;13.35;3.85;;;;;;;5.90;73.37;100878.25;5071736;28;20052;-60
2022/09/21 11:20:34;;;;;;;;;;;;;;;;;;;;;
2022/09/21 11:23:44;;;;;;;21.50;4.80;;;;;;;5.77;73.75;100876.38;5055008;28;20067;-59
2022/09/21 11:26:28;;;;;;;33.47;6.05;;;;;;;5.72;74.19;100871.09;5055849;28;20053;-60
2022/09/21 11:29:16;;;;;;;94.60;10.68;;;;;;;5.40;74.61;100842.16;5073486;28;20063;-60
2022/09/21 11:32:33;;;;;;;82.93;8.38;;;;;;;5.68;74.53;100896.97;5073719;28;20080;-60
2022/09/21 11:35:43;;;;;;;34.80;5.97;;;;;;;5.58;74.58;100899.44;5071294;28;20094;-61
2022/09/21 11:38:33;;;;;;;37.63;9.30;;;;;;;5.44;75.04;100900.94;5069976;28;20098;-61
2022/09/21 11:41:52;;;;;;;47.10;18.30;;;;;;;5.34;75.76;100893.88;5050671;28;20074;-63
2022/09/21 11:44:48;;;;;;;35.75;16.48;;;;;;;5.43;77.02;100919.09;5084178;28;20063;-61
2022/09/21 11:47:58;;;;;;;25.80;11.45;;;;;;;5.13;77.13;100869.41;5082469;28;20124;-61
2022/09/21 11:51:13;;;;;;;23.60;10.50;;;;;;;5.40;77.37;100925.97;5059222;28;20111;-61
2022/09/21 11:54:13;;;;;;;18.00;8.95;;;;;;;5.23;77.68;100903.22;5084980;28;20063;-61
2022/09/21 11:57:19;;;;;;;15.10;6.18;;;;;;;5.18;77.27;100924.75;5084478;28;20070;-61
2022/09/21 12:00:14;;;;;;;13.73;7.80;;;;;;;4.90;77.72;100907.88;5083408;28;20052;-61
2022/09/21 12:03:32;;;;;;;17.13;8.95;;;;;;;4.88;78.43;100908.69;5083193;28;20080;-61
2022/09/21 12:06:44;;;;;;;15.57;8.80;;;;;;;5.10;78.34;100941.88;5040389;28;20108;-61
2022/09/21 12:10:10;;;;;;;16.90;8.38;;;;;;;5.04;78.13;100946.97;4979290;28;20050;-61
2022/09/21 12:13:00;;;;;;;19.42;8.80;;;;;;;4.97;78.12;100950.31;4981643;28;20112;-60
2022/09/21 12:15:43;;;;;;;14.23;7.28;;;;;;;4.87;78.16;100943.22;4981668;28;20078;-61
2022/09/21 12:18:37;;;;;;;12.50;7.32;;;;;;;4.87;77.89;100956.16;4981367;28;20116;-61
2022/09/21 12:21:32;;;;;;;10.82;5.63;;;;;;;4.86;78.21;100957.00;4981528;28;20054;-61
2022/09/21 12:24:26;;;;;;;9.65;5.82;;;;;;;4.61;77.78;100916.84;4980907;28;20308;-60
2022/09/21 12:30:13;;;;;;;13.18;6.20;;;;;;;4.65;77.64;100968.72;4977729;28;20106;-61
2022/09/21 12:32:57;;;;;;;12.30;5.85;;;;;;;4.62;78.49;100978.09;4981505;28;20051;-61
2022/09/21 12:35:49;;;;;;;12.73;5.32;;;;;;;4.16;78.75;100895.28;4980949;28;20328;-61
2022/09/21 12:38:34;;;;;;;9.02;3.70;;;;;;;4.60;78.55;100954.81;5035547;28;20068;-61
2022/09/21 12:41:16;;;;;;;4.78;2.47;;;;;;;4.58;78.28;100965.97;5080364;28;20112;-61
2022/09/21 12:44:03;;;;;;;6.40;2.03;;;;;;;4.47;78.61;100965.78;5082205;28;20048;-61
2022/09/21 12:46:51;;;;;;;4.45;2.10;;;;;;;4.22;79.31;100952.34;5071942;28;20067;-61
2022/09/21 12:49:41;;;;;;;5.30;2.50;;;;;;;4.09;79.59;100968.41;5081475;28;20052;-61
2022/09/21 12:52:28;;;;;;;7.78;3.13;;;;;;;4.06;80.46;100968.38;5081962;28;20112;-61
2022/09/21 12:55:23;;;;;;;8.77;3.70;;;;;;;3.95;80.80;100970.72;5044287;28;20060;-60
2022/09/21 12:58:17;;;;;;;;;;;;;;;4.02;81.19;100974.28;5082277;28;20044;-61
2022/09/21 13:01:16;;;;;;;25.25;11.60;;;;;;;4.09;81.26;100981.34;5081740;28;19969;-61
2022/09/21 13:07:34;;;;;;;3.00;1.90;;;;;;;4.19;81.05;100993.63;5037830;28;20052;-61
2022/09/21 13:10:47;;;;;;;3.83;2.35;;;;;;;4.00;81.01;100970.84;5029133;28;20054;-61
2022/09/21 13:14:08;;;;;;;3.47;1.92;;;;;;;3.93;81.59;100979.28;5025421;28;20080;-61
2022/09/21 13:17:06;;;;;;;4.28;2.45;;;;;;;3.97;81.78;100986.25;5015506;28;20117;-62
2022/09/21 13:20:00;;;;;;;7.72;2.30;;;;;;;3.99;82.17;100994.94;5028459;28;20296;-61
2022/09/21 13:22:40;;;;;;;4.13;2.20;;;;;;;3.96;82.12;100989.69;5027816;28;20081;-59
2022/09/21 13:25:41;;;;;;;6.70;2.20;;;;;;;4.05;82.48;101005.44;4993842;28;20133;-59
2022/09/21 13:28:40;;;;;;;4.85;1.60;;;;;;;4.06;82.59;101005.44;4941870;29;20059;-59
2022/09/21 13:32:02;;;;;;;3.08;1.45;;;;;;;3.99;82.12;101010.44;4941986;29;20317;-59
2022/09/21 13:34:50;;;;;;;1.80;1.50;;;;;;;3.91;82.21;100996.47;4931012;29;20051;-59
2022/09/21 13:37:34;;;;;;;3.40;1.50;;;;;;;3.91;82.59;101006.81;4944991;29;20060;-59
2022/09/21 13:41:07;;;;;;;5.03;1.63;;;;;;;3.91;82.71;101012.00;4939238;29;20071;-59
2022/09/21 13:44:07;;;;;;;4.10;1.60;;;;;;;3.81;83.24;100996.25;4873092;29;20073;-59
2022/09/21 13:47:10;;;;;;;3.03;1.63;;;;;;;3.80;83.11;101002.28;4902324;29;20396;-59
2022/09/21 13:50:10;;;;;;;4.13;1.60;;;;;;;3.85;83.29;101002.41;4944638;29;20060;-59
2022/09/21 13:52:56;;;;;;;8.30;1.88;;;;;;;3.96;83.17;101015.56;4944523;29;20303;-60
2022/09/21 13:55:58;;;;;;;5.85;1.85;;;;;;;3.97;82.94;101018.19;4944173;29;20313;-60
2022/09/21 14:01:23;;;;;;;5.22;2.60;;;;;;;3.82;83.29;101018.72;4944680;29;20108;-59
2022/09/21 14:04:26;;;;;;;12.32;5.75;;;;;;;3.71;83.62;101025.31;4949359;28;20119;-59
2022/09/21 14:07:33;;;;;;;10.38;4.38;;;;;;;3.41;83.77;100984.97;5019195;28;20080;-60
2022/09/21 14:10:24;;;;;;;18.88;3.22;;;;;;;3.21;83.98;100926.81;5021958;28;20057;-59
2022/09/21 14:13:00;;;;;;;11.73;2.15;;;;;;;3.88;84.98;101013.66;4979622;28;20073;-60
2022/09/21 14:15:44;;;;;;;5.75;1.85;;;;;;;4.06;84.80;101012.34;5021708;28;20069;-60
2022/09/21 14:18:37;;;;;;;3.70;1.90;;;;;;;4.06;84.75;101018.38;5029921;28;20330;-59
2022/09/21 14:21:20;;;;;;;4.00;1.48;;;;;;;4.07;84.69;101014.97;5063375;28;20112;-60
2022/09/21 14:24:31;;;;;;;3.28;2.05;;;;;;;3.90;84.68;100985.28;5063290;28;20065;-60
2022/09/21 14:27:33;;;;;;;4.75;1.85;;;;;;;3.98;84.32;101008.72;5032027;28;20113;-60
2022/09/21 14:30:28;;;;;;;10.20;2.75;;;;;;;3.82;84.28;101023.88;5044134;28;20056;-60
2022/09/21 14:33:26;;;;;;;6.85;3.05;;;;;;;3.74;84.76;101025.38;5062607;28;20072;-59
2022/09/21 14:36:02;;;;;;;5.53;2.88;;;;;;;3.80;85.51;101015.22;5066950;28;20249;-59
2022/09/21 14:38:59;;;;;;;2.97;2.40;;;;;;;3.72;85.26;100988.31;5066871;28;20280;-59
2022/09/21 14:41:53;;;;;;;3.20;2.05;;;;;;;3.94;85.14;101012.06;5086326;28;20056;-60
2022/09/21 14:44:41;;;;;;;5.30;1.90;;;;;;;3.87;84.95;100996.41;5090415;28;20040;-61
2022/09/21 14:47:57;;;;;;;6.05;2.05;;;;;;;4.02;84.78;101020.84;5106163;28;20359;-61
2022/09/21 14:50:45;;;;;;;4.90;2.30;;;;;;;3.73;84.99;100971.94;5107088;28;20097;-60
2022/09/21 14:57:33;;;;;;;3.08;1.85;;;;;;;3.88;84.69;101034.34;5107371;28;20047;-61
2022/09/21 15:00:54;;;;;;;8.55;2.75;;;;;;;3.91;84.66;101037.84;5106881;28;20044;-61
2022/09/21 15:03:59;;;;;;;3.70;2.60;;;;;;;4.03;84.82;101049.34;5004986;28;20042;-61
2022/09/21 15:16:29;;;;;;;5.40;2.33;;;;;;;3.82;84.65;101022.97;4978952;28;20337;-61
2022/09/21 15:19:26;;;;;;;7.40;2.70;;;;;;;3.99;85.22;101052.69;5004956;28;20046;-61
2022/09/21 15:22:21;;;;;;;4.55;3.00;;;;;;;4.03;85.32;101059.69;5005269;28;20126;-60
2022/09/21 15:25:14;;;;;;;7.85;2.80;;;;;;;3.63;84.81;101006.19;5005124;28;20050;-61
2022/09/21 15:28:00;;;;;;;8.98;2.90;;;;;;;3.69;84.90;101011.47;5004643;28;20058;-61
2022/09/21 15:30:51;;;;;;;6.05;2.65;;;;;;;4.03;85.24;101059.69;5004628;28;20050;-61
2022/09/21 15:33:45;;;;;;;4.47;2.60;;;;;;;4.06;85.26;101058.88;5004890;28;20076;-61
2022/09/21 15:36:38;;;;;;;;;;;;;;;;;;;;;
2022/09/21 15:39:34;;;;;;;8.02;2.75;;;;;;;3.88;85.42;101043.81;5004738;28;20105;-60
2022/09/21 15:45:34;;;;;;;7.10;2.85;;;;;;;4.07;85.82;101068.41;5064821;28;20144;-61
2022/09/21 15:48:12;;;;;;;4.82;2.75;;;;;;;4.08;85.90;101064.97;5065496;28;20088;-61
2022/09/21 15:51:07;;;;;;;7.55;2.60;;;;;;;3.64;85.54;100989.81;5065650;28;20633;-61
2022/09/21 15:56:46;;;;;;;9.13;2.30;;;;;;;4.05;85.61;101065.78;5065268;28;20359;-61
2022/09/21 15:59:30;;;;;;;4.95;2.63;;;;;;;4.02;85.49;101067.41;5065557;28;20060;-61
2022/09/21 16:02:17;;;;;;;7.28;3.47;;;;;;;4.00;85.64;101064.78;5065039;28;20219;-61
2022/09/21 16:04:51;;;;;;;6.47;2.83;;;;;;;3.73;85.69;101039.16;5065299;28;20053;-61
2022/09/21 16:07:39;;;;;;;9.18;3.00;;;;;;;3.97;85.63;101089.69;5065085;28;20357;-61
2022/09/21 16:10:45;;;;;;;12.15;3.08;;;;;;;3.98;86.29;101096.63;5047009;28;20049;-61
2022/09/21 16:16:21;;;;;;;7.57;3.38;;;;;;;3.87;86.49;101089.50;5063484;28;20061;-61
2022/09/21 16:19:09;;;;;;;9.38;3.45;;;;;;;4.00;86.82;101094.97;5065163;28;20064;-61
2022/09/21 16:21:47;;;;;;;8.43;3.08;;;;;;;3.98;86.73;101083.69;5065415;28;20101;-61
2022/09/21 16:24:46;;;;;;;9.15;3.10;;;;;;;4.03;86.96;101100.19;5065496;28;20084;-60
2022/09/21 16:27:27;;;;;;;10.73;3.20;;;;;;;3.85;86.98;101061.84;5023425;28;20097;-61
2022/09/21 16:30:07;;;;;;;7.78;3.30;;;;;;;4.01;87.73;101096.69;5023538;28;20122;-62
2022/09/21 16:32:47;;;;;;;9.30;3.88;;;;;;;4.20;88.39;101088.53;5022964;28;20096;-61
2022/09/21 16:35:39;;;;;;;6.53;3.58;;;;;;;4.13;87.83;101055.59;5023222;28;20295;-61
2022/09/21 16:38:25;;;;;;;18.08;3.53;;;;;;;4.24;87.35;101090.34;5022993;28;20221;-61
2022/09/21 16:41:13;;;;;;;5.22;3.10;;;;;;;4.31;87.59;101097.38;5027040;28;20350;-61
2022/09/21 16:43:46;;;;;;;9.88;3.33;;;;;;;4.21;87.42;101105.78;5042833;28;20065;-61
2022/09/21 16:46:36;;;;;;;8.63;3.63;;;;;;;4.20;87.38;101109.22;5042650;28;20137;-61
2022/09/21 16:49:26;;;;;;;6.47;2.95;;;;;;;4.38;87.75;101113.94;5011313;28;20045;-63
2022/09/21 16:52:15;;;;;;;12.50;4.15;;;;;;;4.45;87.32;101109.78;5042626;28;20053;-62
2022/09/21 16:57:50;;;;;;;9.18;4.20;;;;;;;4.44;87.63;101072.69;5054407;28;20044;-62
2022/09/21 17:00:32;;;;;;;15.02;4.47;;;;;;;4.66;87.80;101110.22;5084455;28;20044;-62
2022/09/21 17:03:21;;;;;;;9.07;3.85;;;;;;;4.65;87.79;101105.91;5084391;28;20040;-62
2022/09/21 17:06:19;;;;;;;9.93;4.30;;;;;;;4.76;87.37;101112.16;5039466;28;20048;-62